createdAt,value
2023-03-07T00:02:16.190Z,3.21
2023-03-07T00:04:45.566Z,3.18
2023-03-07T00:07:13.812Z,3.13
2023-03-07T00:09:42.462Z,3.08
2023-03-07T00:12:11.146Z,3.03
2023-03-07T00:14:39.326Z,2.96
2023-03-07T00:17:07.388Z,2.89
2023-03-07T00:19:35.664Z,2.83
2023-03-07T00:22:03.835Z,2.76
2023-03-07T00:24:32.215Z,2.69
2023-03-07T00:27:00.284Z,2.63
2023-03-07T00:29:28.766Z,2.59
2023-03-07T00:31:56.945Z,2.57
2023-03-07T00:34:25.122Z,2.57
2023-03-07T00:36:53.285Z,2.56
2023-03-07T00:39:21.461Z,2.55
2023-03-07T00:41:49.644Z,2.52
2023-03-07T00:44:17.710Z,2.50
2023-03-07T00:46:45.886Z,2.46
2023-03-07T00:49:13.956Z,2.40
2023-03-07T00:51:42.237Z,2.36
2023-03-07T00:54:10.307Z,2.33
2023-03-07T00:56:38.584Z,2.30
2023-03-07T00:59:07.373Z,2.29
2023-03-07T01:01:35.652Z,2.27
2023-03-07T01:04:04.083Z,2.25
2023-03-07T01:06:33.230Z,2.20
2023-03-07T01:09:08.244Z,2.14
2023-03-07T01:11:37.255Z,2.09
2023-03-07T01:14:06.257Z,2.05
2023-03-07T01:16:37.694Z,2.00
2023-03-07T01:19:07.514Z,1.94
2023-03-07T01:21:37.702Z,1.88
2023-03-07T01:24:06.517Z,1.80
2023-03-07T01:26:35.059Z,1.73
2023-03-07T01:29:05.229Z,1.65
2023-03-07T01:31:36.162Z,1.57
2023-03-07T01:34:05.345Z,1.49
2023-03-07T01:36:36.874Z,1.41
2023-03-07T01:39:08.369Z,1.32
2023-03-07T01:41:38.596Z,1.25
2023-03-07T01:44:19.409Z,1.17
2023-03-07T01:47:00.843Z,1.10
2023-03-07T01:49:39.274Z,1.02
2023-03-07T01:52:07.345Z,0.96
2023-03-07T01:54:43.096Z,0.90
2023-03-07T01:57:11.090Z,0.84
2023-03-07T01:59:42.708Z,0.79
2023-03-07T02:02:14.611Z,0.72
2023-03-07T02:04:45.097Z,0.66
2023-03-07T02:07:14.097Z,0.61
2023-03-07T02:09:44.062Z,0.55
2023-03-07T02:12:13.715Z,0.50
2023-03-07T02:14:45.951Z,0.44
2023-03-07T02:17:14.285Z,0.38
2023-03-07T02:19:55.032Z,0.33
2023-03-07T02:22:23.217Z,0.28
2023-03-07T02:24:53.445Z,0.23
2023-03-07T02:27:23.454Z,0.19
2023-03-07T02:29:52.339Z,0.15
2023-03-07T02:32:20.594Z,0.09
2023-03-07T02:34:48.794Z,0.05
2023-03-07T02:37:26.380Z,0.01
2023-03-07T02:39:55.386Z,-0.01
2023-03-07T02:42:26.116Z,-0.03
2023-03-07T02:45:00.944Z,-0.05
2023-03-07T02:47:30.959Z,-0.06
2023-03-07T02:49:59.763Z,-0.08
2023-03-07T02:52:29.983Z,-0.09
2023-03-07T02:54:58.872Z,-0.09
2023-03-07T02:57:30.831Z,-0.07
2023-03-07T03:00:00.245Z,-0.05
2023-03-07T03:02:28.814Z,-0.02
2023-03-07T03:04:57.126Z,0.03
2023-03-07T03:07:25.162Z,0.07
2023-03-07T03:09:53.240Z,0.12
2023-03-07T03:12:21.928Z,0.15
2023-03-07T03:14:50.511Z,0.17
2023-03-07T03:17:18.908Z,0.18
2023-03-07T03:19:47.167Z,0.19
2023-03-07T03:22:15.348Z,0.19
2023-03-07T03:24:46.289Z,0.19
2023-03-07T03:27:16.817Z,0.18
2023-03-07T03:29:45.942Z,0.16
2023-03-07T03:32:14.771Z,0.14
2023-03-07T03:34:44.405Z,0.09
2023-03-07T03:37:13.192Z,0.02
2023-03-07T03:39:41.571Z,-0.04
2023-03-07T03:42:10.363Z,-0.10
2023-03-07T03:44:38.739Z,-0.16
2023-03-07T03:47:06.709Z,-0.21
2023-03-07T03:49:34.984Z,-0.26
2023-03-07T03:52:05.070Z,-0.31
2023-03-07T03:54:33.789Z,-0.35
2023-03-07T03:57:02.070Z,-0.38
2023-03-07T03:59:31.471Z,-0.41
2023-03-07T04:01:59.939Z,-0.41
2023-03-07T04:04:28.062Z,-0.40
2023-03-07T04:06:56.197Z,-0.37
2023-03-07T04:09:24.378Z,-0.33
2023-03-07T04:11:52.770Z,-0.28
2023-03-07T04:14:21.132Z,-0.23
2023-03-07T04:16:49.656Z,-0.17
2023-03-07T04:19:18.303Z,-0.11
2023-03-07T04:21:46.577Z,-0.04
2023-03-07T04:24:17.203Z,0.03
2023-03-07T04:26:45.477Z,0.09
2023-03-07T04:29:13.556Z,0.16
2023-03-07T04:31:44.468Z,0.22
2023-03-07T04:34:13.074Z,0.30
2023-03-07T04:36:41.350Z,0.39
2023-03-07T04:39:09.626Z,0.47
2023-03-07T04:41:38.007Z,0.52
2023-03-07T04:44:10.993Z,0.59
2023-03-07T04:46:39.885Z,0.65
2023-03-07T04:49:08.064Z,0.72
2023-03-07T04:51:36.543Z,0.79
2023-03-07T04:54:04.826Z,0.85
2023-03-07T04:56:33.100Z,0.92
2023-03-07T04:59:02.093Z,0.97
2023-03-07T05:01:30.326Z,1.02
2023-03-07T05:03:59.488Z,1.09
2023-03-07T05:06:27.953Z,1.15
2023-03-07T05:08:56.117Z,1.21
2023-03-07T05:11:24.256Z,1.28
2023-03-07T05:13:53.397Z,1.34
2023-03-07T05:16:23.509Z,1.40
2023-03-07T05:18:51.553Z,1.46
2023-03-07T05:21:20.368Z,1.49
2023-03-07T05:23:48.315Z,1.51
2023-03-07T05:26:16.663Z,1.54
2023-03-07T05:28:44.860Z,1.56
2023-03-07T05:31:13.148Z,1.58
2023-03-07T05:33:42.832Z,1.62
2023-03-07T05:36:11.567Z,1.67
2023-03-07T05:38:40.335Z,1.75
2023-03-07T05:41:08.730Z,1.88
2023-03-07T05:43:37.521Z,1.98
2023-03-07T05:46:05.617Z,2.07
2023-03-07T05:48:34.076Z,2.14
2023-03-07T05:51:02.761Z,2.20
2023-03-07T05:53:31.610Z,2.27
2023-03-07T05:56:00.443Z,2.33
2023-03-07T05:58:29.747Z,2.41
2023-03-07T06:00:58.426Z,2.53
2023-03-07T06:03:26.924Z,2.74
2023-03-07T06:05:55.388Z,2.96
2023-03-07T06:08:23.564Z,3.19
2023-03-07T06:10:53.181Z,3.49
2023-03-07T06:13:22.989Z,3.75
2023-03-07T06:15:52.172Z,4.67
2023-03-07T06:18:21.280Z,5.64
2023-03-07T06:20:59.181Z,5.91
2023-03-07T06:23:28.993Z,6.02
2023-03-07T06:25:57.782Z,6.05
2023-03-07T06:28:26.908Z,6.02
2023-03-07T06:30:55.566Z,6.11
2023-03-07T06:33:24.866Z,6.31
2023-03-07T06:35:53.313Z,6.46
2023-03-07T06:38:21.521Z,6.57
2023-03-07T06:40:56.738Z,6.73
2023-03-07T06:43:25.143Z,6.89
2023-03-07T06:45:53.702Z,7.04
2023-03-07T06:48:22.442Z,7.50
2023-03-07T06:50:50.487Z,8.40
2023-03-07T06:53:18.767Z,9.57
2023-03-07T06:55:50.872Z,10.54
2023-03-07T06:58:18.996Z,11.42
2023-03-07T07:00:47.079Z,11.87
2023-03-07T07:03:15.504Z,12.36
2023-03-07T07:05:43.737Z,12.87
2023-03-07T07:08:12.516Z,13.14
2023-03-07T07:10:41.222Z,13.34
2023-03-07T07:13:09.536Z,13.66
2023-03-07T07:15:37.696Z,14.06
2023-03-07T07:18:06.447Z,14.54
2023-03-07T07:20:35.317Z,15.05
2023-03-07T07:23:03.949Z,15.59
2023-03-07T07:25:31.996Z,16.00
2023-03-07T07:28:00.253Z,16.33
2023-03-07T07:30:28.624Z,16.67
2023-03-07T07:32:57.273Z,16.96
2023-03-07T07:35:25.447Z,17.20
2023-03-07T07:37:54.605Z,17.43
2023-03-07T07:40:22.793Z,17.52
2023-03-07T07:42:55.046Z,17.67
2023-03-07T07:45:37.774Z,17.70
2023-03-07T07:48:06.775Z,17.82
2023-03-07T07:50:36.137Z,17.89
2023-03-07T07:53:05.385Z,17.83
2023-03-07T07:55:33.564Z,17.82
2023-03-07T07:58:02.493Z,17.96
2023-03-07T08:00:31.377Z,17.99
2023-03-07T08:03:00.418Z,17.91
2023-03-07T08:05:28.592Z,17.95
2023-03-07T08:07:57.062Z,17.93
2023-03-07T08:10:25.248Z,17.94
2023-03-07T08:12:53.762Z,18.09
2023-03-07T08:15:22.007Z,18.19
2023-03-07T08:17:51.561Z,18.03
2023-03-07T08:20:22.570Z,17.98
2023-03-07T08:22:51.765Z,18.09
2023-03-07T08:25:22.591Z,18.11
2023-03-07T08:27:55.039Z,18.14
2023-03-07T08:30:23.649Z,18.26
2023-03-07T08:32:53.255Z,18.49
2023-03-07T08:35:21.717Z,18.72
2023-03-07T08:37:53.838Z,18.95
2023-03-07T08:40:22.844Z,19.24
2023-03-07T08:42:50.892Z,19.50
2023-03-07T08:45:18.976Z,19.54
2023-03-07T08:47:47.074Z,19.86
2023-03-07T08:50:15.281Z,20.00
2023-03-07T08:52:44.077Z,20.13
2023-03-07T08:55:12.249Z,20.18
2023-03-07T08:57:40.385Z,20.10
2023-03-07T09:00:11.068Z,20.07
2023-03-07T09:02:39.411Z,20.28
2023-03-07T09:05:07.816Z,20.48
2023-03-07T09:07:35.945Z,20.70
2023-03-07T09:10:06.033Z,20.60
2023-03-07T09:12:34.873Z,20.36
2023-03-07T09:15:03.054Z,20.27
2023-03-07T09:17:31.166Z,20.18
2023-03-07T09:19:59.336Z,20.00
2023-03-07T09:22:27.714Z,19.93
2023-03-07T09:24:55.722Z,19.75
2023-03-07T09:27:23.760Z,19.75
2023-03-07T09:29:51.793Z,19.77
2023-03-07T09:32:20.244Z,19.94
2023-03-07T09:34:48.233Z,19.98
2023-03-07T09:37:16.319Z,20.06
2023-03-07T09:39:44.596Z,20.08
2023-03-07T09:42:12.751Z,19.90
2023-03-07T09:44:46.928Z,19.68
2023-03-07T09:47:42.268Z,19.51
2023-03-07T09:50:13.823Z,19.37
2023-03-07T09:52:43.070Z,19.25
2023-03-07T09:55:17.596Z,19.23
2023-03-07T09:57:50.314Z,19.23
2023-03-07T10:00:27.449Z,19.17
2023-03-07T10:03:12.699Z,19.32
2023-03-07T10:05:43.189Z,19.62
2023-03-07T10:08:20.097Z,19.67
2023-03-07T10:11:03.622Z,19.67
2023-03-07T10:13:50.381Z,19.64
2023-03-07T10:16:41.657Z,19.77
2023-03-07T10:19:13.958Z,19.79
2023-03-07T10:21:57.278Z,19.85
2023-03-07T10:24:31.451Z,20.04
2023-03-07T10:26:59.560Z,20.04
2023-03-07T10:29:32.388Z,20.26
2023-03-07T10:32:14.543Z,20.39
2023-03-07T10:34:42.801Z,20.41
2023-03-07T10:37:19.356Z,20.22
2023-03-07T10:39:55.186Z,20.05
2023-03-07T10:42:32.281Z,20.03
2023-03-07T10:45:01.425Z,20.02
2023-03-07T10:47:29.835Z,20.27
2023-03-07T10:50:11.534Z,20.36
2023-03-07T10:52:41.383Z,20.26
2023-03-07T10:55:28.252Z,20.29
2023-03-07T10:58:12.244Z,20.31
2023-03-07T11:00:40.487Z,20.25
2023-03-07T11:03:25.822Z,20.15
2023-03-07T11:05:54.223Z,20.32
2023-03-07T11:08:22.342Z,20.58
2023-03-07T11:10:50.400Z,20.65
2023-03-07T11:13:19.720Z,20.46
2023-03-07T11:15:47.778Z,20.43
2023-03-07T11:18:28.228Z,20.27
2023-03-07T11:20:57.174Z,20.05
2023-03-07T11:23:26.718Z,19.96
2023-03-07T11:25:55.756Z,19.91
2023-03-07T11:28:23.792Z,19.97
2023-03-07T11:31:12.172Z,20.00
2023-03-07T11:33:58.687Z,20.04
2023-03-07T11:36:32.149Z,20.06
2023-03-07T11:39:09.378Z,20.00
2023-03-07T11:41:38.509Z,19.93
2023-03-07T11:44:06.446Z,19.89
2023-03-07T11:46:34.363Z,19.74
2023-03-07T11:49:11.581Z,19.43
2023-03-07T11:51:53.734Z,19.32
2023-03-07T11:54:27.909Z,19.37
2023-03-07T11:57:00.600Z,19.38
2023-03-07T11:59:34.599Z,19.46
2023-03-07T12:02:06.339Z,19.48
2023-03-07T12:04:37.156Z,19.50
2023-03-07T12:07:08.371Z,19.49
2023-03-07T12:09:36.267Z,19.63
2023-03-07T12:12:10.505Z,19.64
2023-03-07T12:14:55.148Z,19.64
2023-03-07T12:17:23.353Z,19.68
2023-03-07T12:20:02.473Z,19.68
2023-03-07T12:22:36.701Z,19.62
2023-03-07T12:25:04.720Z,19.63
2023-03-07T12:27:41.932Z,19.43
2023-03-07T12:30:13.080Z,19.33
2023-03-07T12:32:41.476Z,19.37
2023-03-07T12:35:28.545Z,19.31
2023-03-07T12:38:08.574Z,19.19
2023-03-07T12:40:45.507Z,19.20
2023-03-07T12:43:23.732Z,19.19
2023-03-07T12:46:12.616Z,19.21
2023-03-07T12:48:49.140Z,19.16
2023-03-07T12:51:26.340Z,19.14
2023-03-07T12:54:08.885Z,19.03
2023-03-07T12:56:40.001Z,18.96
2023-03-07T12:59:12.945Z,18.86
2023-03-07T13:01:46.573Z,18.76
2023-03-07T13:04:17.656Z,18.73
2023-03-07T13:06:46.631Z,18.62
2023-03-07T13:09:23.569Z,18.45
2023-03-07T13:12:08.940Z,18.33
2023-03-07T13:14:41.738Z,18.22
2023-03-07T13:17:10.944Z,18.13
2023-03-07T13:19:39.494Z,18.14
2023-03-07T13:22:10.526Z,18.19
2023-03-07T13:24:40.178Z,18.22
2023-03-07T13:27:14.019Z,18.24
2023-03-07T13:30:00.802Z,18.22
2023-03-07T13:32:47.771Z,18.11
2023-03-07T13:35:31.265Z,17.92
2023-03-07T13:38:15.296Z,17.90
2023-03-07T13:40:43.560Z,17.95
2023-03-07T13:43:31.814Z,17.93
2023-03-07T13:46:00.985Z,17.88
2023-03-07T13:48:29.010Z,17.88
2023-03-07T13:50:57.106Z,17.82
2023-03-07T13:53:30.912Z,17.77
2023-03-07T13:55:58.954Z,17.75
2023-03-07T13:58:44.875Z,17.72
2023-03-07T14:01:23.676Z,17.59
2023-03-07T14:03:54.587Z,17.44
2023-03-07T14:06:28.620Z,17.34
2023-03-07T14:09:01.502Z,17.15
2023-03-07T14:11:49.935Z,16.98
2023-03-07T14:14:25.162Z,16.88
2023-03-07T14:16:59.270Z,16.72
2023-03-07T14:19:27.974Z,16.56
2023-03-07T14:21:58.959Z,16.45
2023-03-07T14:24:46.481Z,16.39
2023-03-07T14:27:15.592Z,16.31
2023-03-07T14:29:53.681Z,16.27
2023-03-07T14:32:27.592Z,16.21
2023-03-07T14:34:57.835Z,16.16
2023-03-07T14:37:32.943Z,16.13
2023-03-07T14:40:22.537Z,16.09
2023-03-07T14:42:54.359Z,16.05
2023-03-07T14:45:46.000Z,16.00
2023-03-07T14:48:13.927Z,15.93
2023-03-07T14:50:46.864Z,15.86
2023-03-07T14:53:26.757Z,15.78
2023-03-07T14:55:55.959Z,15.71
2023-03-07T14:58:25.684Z,15.65
2023-03-07T15:01:04.320Z,15.55
2023-03-07T15:03:32.803Z,15.49
2023-03-07T15:06:02.941Z,15.45
2023-03-07T15:08:33.555Z,15.39
2023-03-07T15:11:01.529Z,15.32
2023-03-07T15:13:33.090Z,15.22
2023-03-07T15:16:03.854Z,15.14
2023-03-07T15:18:32.004Z,15.06
2023-03-07T15:21:01.342Z,14.98
2023-03-07T15:23:30.073Z,14.92
2023-03-07T15:26:05.615Z,14.84
2023-03-07T15:28:38.222Z,14.75
2023-03-07T15:31:08.292Z,14.65
2023-03-07T15:33:36.467Z,14.57
2023-03-07T15:36:13.785Z,14.47
2023-03-07T15:38:49.767Z,14.36
2023-03-07T15:41:36.079Z,14.25
2023-03-07T15:44:22.156Z,14.14
2023-03-07T15:46:54.864Z,14.01
2023-03-07T15:49:26.119Z,13.90
2023-03-07T15:51:55.868Z,13.79
2023-03-07T15:54:30.591Z,13.67
2023-03-07T15:57:00.878Z,13.54
2023-03-07T15:59:30.938Z,13.42
2023-03-07T16:02:18.778Z,13.30
2023-03-07T16:04:46.744Z,13.18
2023-03-07T16:07:20.508Z,13.07
2023-03-07T16:09:48.682Z,12.96
2023-03-07T16:12:18.678Z,12.87
2023-03-07T16:14:50.961Z,12.77
2023-03-07T16:17:36.247Z,12.65
2023-03-07T16:20:04.927Z,12.54
2023-03-07T16:22:33.078Z,12.45
2023-03-07T16:25:01.179Z,12.35
2023-03-07T16:27:29.165Z,12.27
2023-03-07T16:29:59.442Z,12.19
2023-03-07T16:32:28.891Z,12.09
2023-03-07T16:34:57.049Z,11.99
2023-03-07T16:37:25.909Z,11.90
2023-03-07T16:39:54.058Z,11.80
2023-03-07T16:42:23.171Z,11.70
2023-03-07T16:44:51.883Z,11.62
2023-03-07T16:47:19.928Z,11.52
2023-03-07T16:49:49.090Z,11.42
2023-03-07T16:52:17.026Z,11.31
2023-03-07T16:54:45.001Z,11.20
2023-03-07T16:57:15.168Z,11.09
2023-03-07T16:59:44.976Z,10.97
2023-03-07T17:02:15.232Z,10.85
2023-03-07T17:04:44.419Z,10.73
2023-03-07T17:07:18.475Z,10.61
2023-03-07T17:09:46.645Z,10.48
2023-03-07T17:12:14.610Z,10.37
2023-03-07T17:14:43.174Z,10.27
2023-03-07T17:17:29.336Z,10.17
2023-03-07T17:19:57.455Z,10.06
2023-03-07T17:22:25.515Z,9.96
2023-03-07T17:24:53.508Z,9.87
2023-03-07T17:27:22.034Z,9.78
2023-03-07T17:29:53.009Z,9.69
2023-03-07T17:32:21.645Z,9.60
2023-03-07T17:34:49.816Z,9.52
2023-03-07T17:37:18.073Z,9.44
2023-03-07T17:39:46.242Z,9.36
2023-03-07T17:42:14.396Z,9.30
2023-03-07T17:44:42.848Z,9.24
2023-03-07T17:47:10.841Z,9.16
2023-03-07T17:49:39.461Z,9.12
2023-03-07T17:52:07.814Z,9.07
2023-03-07T17:54:36.151Z,9.03
2023-03-07T17:57:04.374Z,9.01
2023-03-07T17:59:32.983Z,8.98
2023-03-07T18:02:01.473Z,8.94
2023-03-07T18:04:31.532Z,8.90
2023-03-07T18:07:00.197Z,8.87
2023-03-07T18:09:28.308Z,8.82
2023-03-07T18:11:56.348Z,8.75
2023-03-07T18:14:24.436Z,8.69
2023-03-07T18:16:53.375Z,8.63
2023-03-07T18:19:26.669Z,8.57
2023-03-07T18:21:55.495Z,8.51
2023-03-07T18:24:30.642Z,8.46
2023-03-07T18:27:02.448Z,8.39
2023-03-07T18:29:30.843Z,8.33
2023-03-07T18:32:00.949Z,8.28
2023-03-07T18:34:29.199Z,8.23
2023-03-07T18:37:01.659Z,8.18
2023-03-07T18:39:30.090Z,8.13
2023-03-07T18:41:58.148Z,8.08
2023-03-07T18:44:26.184Z,8.04
2023-03-07T18:46:54.272Z,7.99
2023-03-07T18:49:22.291Z,7.94
2023-03-07T18:51:50.409Z,7.89
2023-03-07T18:54:18.435Z,7.85
2023-03-07T18:56:47.312Z,7.81
2023-03-07T18:59:16.022Z,7.78
2023-03-07T19:01:44.688Z,7.75
2023-03-07T19:04:12.898Z,7.72
2023-03-07T19:06:42.202Z,7.70
2023-03-07T19:09:17.438Z,7.68
2023-03-07T19:11:45.927Z,7.66
2023-03-07T19:14:14.060Z,7.64
2023-03-07T19:16:42.882Z,7.60
2023-03-07T19:19:11.594Z,7.57
2023-03-07T19:21:40.156Z,7.52
2023-03-07T19:24:11.424Z,7.49
2023-03-07T19:26:40.982Z,7.45
2023-03-07T19:29:11.200Z,7.41
2023-03-07T19:31:39.453Z,7.38
2023-03-07T19:34:07.484Z,7.35
2023-03-07T19:36:37.057Z,7.31
2023-03-07T19:39:05.698Z,7.29
2023-03-07T19:41:33.696Z,7.25
2023-03-07T19:44:01.924Z,7.21
2023-03-07T19:46:30.033Z,7.17
2023-03-07T19:48:58.446Z,7.13
2023-03-07T19:51:26.603Z,7.08
2023-03-07T19:53:57.387Z,7.04
2023-03-07T19:56:29.976Z,6.99
2023-03-07T19:58:59.192Z,6.93
2023-03-07T20:01:28.716Z,6.87
2023-03-07T20:03:57.197Z,6.82
2023-03-07T20:06:26.837Z,6.77
2023-03-07T20:08:55.260Z,6.70
2023-03-07T20:11:26.995Z,6.65
2023-03-07T20:13:56.382Z,6.59
2023-03-07T20:16:24.718Z,6.54
2023-03-07T20:18:53.856Z,6.49
2023-03-07T20:21:26.280Z,6.46
2023-03-07T20:23:59.856Z,6.41
2023-03-07T20:26:30.077Z,6.36
2023-03-07T20:28:59.206Z,6.31
2023-03-07T20:31:28.271Z,6.27
2023-03-07T20:33:58.008Z,6.22
2023-03-07T20:36:30.750Z,6.17
2023-03-07T20:39:00.331Z,6.13
2023-03-07T20:41:30.441Z,6.09
2023-03-07T20:44:00.876Z,6.05
2023-03-07T20:46:28.963Z,6.00
2023-03-07T20:48:57.898Z,5.96
2023-03-07T20:51:27.400Z,5.92
2023-03-07T20:53:57.173Z,5.87
2023-03-07T20:56:26.484Z,5.83
2023-03-07T20:58:55.332Z,5.79
2023-03-07T21:01:24.723Z,5.74
2023-03-07T21:03:53.912Z,5.70
2023-03-07T21:06:22.189Z,5.65
2023-03-07T21:08:50.180Z,5.60
2023-03-07T21:11:19.172Z,5.54
2023-03-07T21:13:48.688Z,5.49
2023-03-07T21:16:16.709Z,5.44
2023-03-07T21:18:44.832Z,5.41
2023-03-07T21:21:14.519Z,5.37
2023-03-07T21:23:42.720Z,5.35
2023-03-07T21:26:15.448Z,5.36
2023-03-07T21:28:43.995Z,5.38
2023-03-07T21:31:11.940Z,5.40
2023-03-07T21:33:41.218Z,5.41
2023-03-07T21:36:11.178Z,5.44
2023-03-07T21:38:41.588Z,5.47
2023-03-07T21:41:09.725Z,5.49
2023-03-07T21:43:37.701Z,5.51
2023-03-07T21:46:06.270Z,5.55
2023-03-07T21:48:34.339Z,5.59
2023-03-07T21:51:02.455Z,5.64
2023-03-07T21:53:31.208Z,5.70
2023-03-07T21:56:02.793Z,5.75
2023-03-07T21:58:31.404Z,5.82
2023-03-07T22:00:59.556Z,5.90
2023-03-07T22:03:29.242Z,5.95
2023-03-07T22:05:57.596Z,6.00
2023-03-07T22:08:25.931Z,6.06
2023-03-07T22:10:59.462Z,6.10
2023-03-07T22:13:28.303Z,6.14
2023-03-07T22:15:57.673Z,6.17
2023-03-07T22:18:26.055Z,6.19
2023-03-07T22:20:55.313Z,6.20
2023-03-07T22:23:23.705Z,6.19
2023-03-07T22:25:51.713Z,6.18
2023-03-07T22:28:19.733Z,6.18
2023-03-07T22:30:49.470Z,6.17
2023-03-07T22:33:17.651Z,6.18
2023-03-07T22:35:45.821Z,6.18
2023-03-07T22:38:16.452Z,6.18
2023-03-07T22:40:45.024Z,6.19
2023-03-07T22:43:13.079Z,6.18
2023-03-07T22:45:46.637Z,6.18
2023-03-07T22:48:16.268Z,6.16
2023-03-07T22:50:44.490Z,6.14
2023-03-07T22:53:12.719Z,6.12
2023-03-07T22:55:44.145Z,6.08
2023-03-07T22:58:12.669Z,6.05
2023-03-07T23:00:41.802Z,6.00
2023-03-07T23:03:10.387Z,5.94
2023-03-07T23:05:38.473Z,5.87
2023-03-07T23:08:06.551Z,5.81
2023-03-07T23:10:34.793Z,5.73
2023-03-07T23:13:02.764Z,5.66
2023-03-07T23:15:31.281Z,5.58
2023-03-07T23:17:59.492Z,5.50
2023-03-07T23:20:29.142Z,5.43
2023-03-07T23:22:57.074Z,5.37
2023-03-07T23:25:25.182Z,5.31
2023-03-07T23:27:53.076Z,5.24
2023-03-07T23:30:22.028Z,5.17
2023-03-07T23:32:50.094Z,5.13
2023-03-07T23:35:18.104Z,5.07
2023-03-07T23:37:47.642Z,5.02
2023-03-07T23:40:15.591Z,4.97
2023-03-07T23:42:44.072Z,4.92
2023-03-07T23:45:12.201Z,4.86
2023-03-07T23:47:40.674Z,4.80
2023-03-07T23:50:09.396Z,4.75
2023-03-07T23:52:37.279Z,4.70
2023-03-07T23:55:09.076Z,4.65
2023-03-07T23:57:38.052Z,4.58
